Time;durP1;ratioP1;P1;durP2;ratioP2;P2;SDS_P1;SDS_P2;PMS_P1;PMS_P2;Temp;Humidity;BMP_temperature;BMP_pressure;BME280_temperature;BME280_humidity;BME280_pressure;Samples;Min_cycle;Max_cycle;Signal;HPM_P1;HPM_P2
2023/04/29 00:00:12;;;;;;;89.28;72.75;;;9.40;99.90;;;;;;5012906;28;20443;-74
2023/04/29 00:02:37;;;;;;;99.97;75.20;;;9.50;99.90;;;;;;4996227;28;20042;-74
2023/04/29 00:05:04;;;;;;;105.05;76.13;;;9.40;99.90;;;;;;5023408;28;20040;-74
2023/04/29 00:07:31;;;;;;;86.55;71.10;;;9.40;99.90;;;;;;4997054;28;20055;-74
2023/04/29 00:09:57;;;;;;;81.47;69.45;;;9.40;99.90;;;;;;5013714;28;20045;-74
2023/04/29 00:12:23;;;;;;;87.15;71.43;;;9.40;99.90;;;;;;4993269;28;20100;-75
2023/04/29 00:14:51;;;;;;;80.22;66.95;;;9.40;99.90;;;;;;5014609;28;20037;-74
2023/04/29 00:17:17;;;;;;;82.70;69.55;;;9.40;99.90;;;;;;4992670;28;20405;-74
2023/04/29 00:19:43;;;;;;;81.30;68.93;;;9.40;99.90;;;;;;5001248;28;20374;-74
2023/04/29 00:22:11;;;;;;;83.20;69.68;;;9.40;99.90;;;;;;5017076;28;20034;-74
2023/04/29 00:24:39;;;;;;;77.15;67.63;;;9.40;99.90;;;;;;5001108;28;20056;-74
2023/04/29 00:27:05;;;;;;;78.75;66.70;;;9.40;99.90;;;;;;4999730;28;20041;-74
2023/04/29 00:29:31;;;;;;;74.13;66.07;;;9.30;99.90;;;;;;5014818;28;20045;-74
2023/04/29 00:31:59;;;;;;;73.25;64.00;;;9.30;99.90;;;;;;5017224;28;20099;-74
2023/04/29 00:34:24;;;;;;;69.53;62.08;;;9.30;99.90;;;;;;5016840;28;20520;-74
2023/04/29 00:36:50;;;;;;;65.70;58.78;;;9.30;99.90;;;;;;5016193;28;20041;-74
2023/04/29 00:39:16;;;;;;;74.55;63.40;;;9.30;99.90;;;;;;5000254;28;20037;-74
2023/04/29 00:41:41;;;;;;;69.88;62.47;;;9.30;99.90;;;;;;5017245;28;20092;-74
2023/04/29 00:44:07;;;;;;;72.75;63.63;;;9.20;99.90;;;;;;4999737;28;20404;-74
2023/04/29 00:46:33;;;;;;;71.63;59.35;;;9.20;99.90;;;;;;5007842;28;20043;-74
2023/04/29 00:48:59;;;;;;;61.63;55.17;;;9.20;99.90;;;;;;4992509;28;20037;-74
2023/04/29 00:51:28;;;;;;;63.10;56.33;;;9.20;99.90;;;;;;5016534;28;20111;-74
2023/04/29 00:53:54;;;;;;;66.13;59.03;;;9.10;99.90;;;;;;5016459;28;20532;-74
2023/04/29 00:56:20;;;;;;;64.40;57.47;;;9.10;99.90;;;;;;5000372;28;20041;-74
2023/04/29 00:58:48;;;;;;;71.35;61.65;;;9.00;99.90;;;;;;5015389;28;20038;-74
2023/04/29 01:01:15;;;;;;;66.97;59.20;;;9.00;99.90;;;;;;5015721;28;20473;-74
2023/04/29 01:03:41;;;;;;;72.88;62.70;;;9.00;99.90;;;;;;4999319;28;20048;-74
2023/04/29 01:06:29;;;;;;;65.82;58.83;;;8.90;99.90;;;;;;5000539;28;20428;-74
2023/04/29 01:09:25;;;;;;;67.63;60.40;;;8.90;99.90;;;;;;5012693;28;20048;-74
2023/04/29 01:12:25;;;;;;;67.95;60.47;;;8.90;99.90;;;;;;4996957;28;20049;-74
2023/04/29 01:15:03;;;;;;;71.28;61.45;;;8.80;99.90;;;;;;4990965;28;20033;-74
2023/04/29 01:17:34;;;;;;;69.53;62.05;;;8.80;99.90;;;;;;5000081;28;20120;-74
2023/04/29 01:20:01;;;;;;;70.15;62.50;;;8.70;99.90;;;;;;5015614;28;20221;-74
2023/04/29 01:22:29;;;;;;;68.45;61.05;;;8.70;99.90;;;;;;5000164;28;20045;-74
2023/04/29 01:24:55;;;;;;;69.45;61.75;;;8.70;99.90;;;;;;4999806;28;20048;-74
2023/04/29 01:27:55;;;;;;;64.25;57.42;;;8.70;99.90;;;;;;4998846;28;20107;-75
2023/04/29 01:30:31;;;;;;;60.42;54.13;;;8.70;99.90;;;;;;4983479;28;20080;-74
2023/04/29 01:33:07;;;;;;;66.38;58.15;;;8.80;99.90;;;;;;4999272;28;20045;-74
2023/04/29 01:36:17;;;;;;;65.63;58.45;;;8.80;99.90;;;;;;5007998;28;20401;-74
2023/04/29 01:39:05;;;;;;;60.97;54.35;;;8.80;99.90;;;;;;5001413;28;20075;-74
2023/04/29 01:41:41;;;;;;;65.25;57.78;;;8.80;99.90;;;;;;5013585;28;20049;-74
2023/04/29 01:44:09;;;;;;;65.40;57.95;;;8.80;99.90;;;;;;5009568;28;20179;-74
2023/04/29 01:46:36;;;;;;;62.67;55.88;;;8.90;99.90;;;;;;5033382;28;20124;-74
2023/04/29 01:49:06;;;;;;;74.93;62.88;;;8.90;99.90;;;;;;5014309;28;20048;-74
2023/04/29 01:51:36;;;;;;;65.10;56.13;;;8.90;99.90;;;;;;5007367;28;20041;-74
2023/04/29 01:54:04;;;;;;;66.03;58.30;;;8.90;99.90;;;;;;4996424;28;20115;-74
2023/04/29 01:56:29;;;;;;;68.97;58.95;;;8.90;99.90;;;;;;4998424;28;20511;-74
2023/04/29 01:58:55;;;;;;;67.38;56.42;;;8.90;99.90;;;;;;4998608;28;20044;-74
2023/04/29 02:01:21;;;;;;;68.13;57.60;;;8.90;99.90;;;;;;4999097;28;20052;-74
2023/04/29 02:03:46;;;;;;;67.85;55.85;;;8.90;99.90;;;;;;4998615;28;20107;-74
2023/04/29 02:06:12;;;;;;;70.22;58.25;;;8.90;99.90;;;;;;4997519;28;20041;-74
2023/04/29 02:08:37;;;;;;;64.63;57.13;;;9.00;99.90;;;;;;4993817;28;20406;-74
2023/04/29 02:11:03;;;;;;;63.20;56.15;;;8.90;99.90;;;;;;4992209;28;20071;-74
2023/04/29 02:13:29;;;;;;;67.80;57.72;;;8.90;99.90;;;;;;4997308;28;20444;-74
2023/04/29 02:15:54;;;;;;;71.00;57.58;;;8.90;99.90;;;;;;5014624;28;20156;-74
2023/04/29 02:18:20;;;;;;;66.40;57.35;;;8.90;99.90;;;;;;5015447;28;20493;-74
2023/04/29 02:20:49;;;;;;;68.18;58.25;;;8.90;99.90;;;;;;4993046;28;20033;-74
2023/04/29 02:23:16;;;;;;;68.57;56.90;;;8.90;99.90;;;;;;5013782;28;20045;-74
2023/04/29 02:25:41;;;;;;;62.50;53.40;;;8.90;99.90;;;;;;5010470;28;20037;-74
2023/04/29 02:28:07;;;;;;;67.30;56.90;;;8.90;99.90;;;;;;4998489;28;20137;-74
2023/04/29 02:30:35;;;;;;;63.72;54.47;;;8.90;99.90;;;;;;4998420;28;20124;-74
2023/04/29 02:33:04;;;;;;;65.60;54.17;;;8.90;99.90;;;;;;4990639;28;20489;-77
2023/04/29 02:35:32;;;;;;;58.25;51.47;;;8.90;99.90;;;;;;5031245;28;20040;-74
2023/04/29 02:37:58;;;;;;;61.60;52.28;;;8.90;99.90;;;;;;4997437;28;20124;-74
2023/04/29 02:40:25;;;;;;;57.80;51.50;;;8.90;99.90;;;;;;5014248;28;21429;-74
2023/04/29 02:42:50;;;;;;;56.13;50.15;;;8.90;99.90;;;;;;4990276;28;20099;-74
2023/04/29 02:45:16;;;;;;;56.22;50.08;;;8.90;99.90;;;;;;4990229;28;20536;-74
2023/04/29 02:47:42;;;;;;;59.20;52.72;;;8.90;99.90;;;;;;4997510;28;20065;-74
2023/04/29 02:50:08;;;;;;;58.70;51.90;;;8.90;99.90;;;;;;4997957;28;20037;-74
2023/04/29 02:52:34;;;;;;;66.75;56.35;;;8.80;99.90;;;;;;5005765;28;20045;-74
2023/04/29 02:54:59;;;;;;;64.20;53.72;;;8.80;99.90;;;;;;4998017;28;20045;-74
2023/04/29 02:57:25;;;;;;;68.88;55.35;;;8.80;99.90;;;;;;4990116;28;20383;-74
2023/04/29 02:59:50;;;;;;;61.78;53.35;;;8.80;99.90;;;;;;4998432;28;20505;-74
2023/04/29 03:02:16;;;;;;;62.70;52.28;;;8.80;99.90;;;;;;5011574;28;20489;-74
2023/04/29 03:04:42;;;;;;;57.55;50.65;;;8.80;99.90;;;;;;5008339;28;20462;-74
2023/04/29 03:07:07;;;;;;;60.70;52.55;;;8.80;99.90;;;;;;5011206;28;20047;-74
2023/04/29 03:09:33;;;;;;;62.03;53.42;;;8.90;99.90;;;;;;4998022;28;20128;-74
2023/04/29 03:11:59;;;;;;;55.20;49.17;;;8.80;99.90;;;;;;4989905;28;20136;-74
2023/04/29 03:14:25;;;;;;;56.90;49.22;;;8.80;99.90;;;;;;5030148;28;20409;-74
2023/04/29 03:16:55;;;;;;;57.90;50.22;;;8.80;99.90;;;;;;4997264;28;20033;-74
2023/04/29 03:19:21;;;;;;;56.65;50.45;;;8.70;99.90;;;;;;4998250;28;20033;-74
2023/04/29 03:21:46;;;;;;;60.15;50.42;;;8.70;99.90;;;;;;5013889;28;20567;-74
2023/04/29 03:24:12;;;;;;;57.00;50.47;;;8.70;99.90;;;;;;4984601;28;20081;-74
2023/04/29 03:26:37;;;;;;;54.67;48.75;;;8.70;99.90;;;;;;5013985;28;20034;-74
2023/04/29 03:29:03;;;;;;;55.58;48.63;;;8.70;99.90;;;;;;4996415;28;20042;-74
2023/04/29 03:31:29;;;;;;;61.65;53.42;;;8.70;99.90;;;;;;4996852;28;20497;-74
2023/04/29 03:33:54;;;;;;;54.33;48.40;;;8.70;99.90;;;;;;4996791;28;20116;-74
2023/04/29 03:36:20;;;;;;;50.28;45.05;;;8.60;99.90;;;;;;5013507;28;20049;-74
2023/04/29 03:38:48;;;;;;;51.50;45.97;;;8.70;99.90;;;;;;4997944;28;20041;-74
2023/04/29 03:41:13;;;;;;;49.95;44.65;;;8.70;99.90;;;;;;5013705;28;20075;-77
2023/04/29 03:43:39;;;;;;;48.10;43.10;;;8.60;99.90;;;;;;5012879;28;20468;-77
2023/04/29 03:46:06;;;;;;;51.00;45.70;;;8.60;99.90;;;;;;5013746;28;20040;-74
2023/04/29 03:48:35;;;;;;;52.90;46.72;;;8.60;99.90;;;;;;5014053;28;20048;-74
2023/04/29 03:51:01;;;;;;;51.80;46.10;;;8.50;99.90;;;;;;5034838;28;20044;-74
2023/04/29 03:53:27;;;;;;;50.47;45.00;;;8.50;99.90;;;;;;5012930;28;20037;-74
2023/04/29 03:55:53;;;;;;;50.35;44.88;;;8.50;99.90;;;;;;5001394;28;20056;-77
2023/04/29 03:58:22;;;;;;;52.58;46.35;;;8.50;99.90;;;;;;5001173;28;20128;-77
2023/04/29 04:00:48;;;;;;;53.25;46.85;;;8.50;99.90;;;;;;5000767;28;20046;-77
2023/04/29 04:03:16;;;;;;;53.17;47.58;;;8.50;99.90;;;;;;5016512;28;20047;-77
2023/04/29 04:05:41;;;;;;;54.45;48.63;;;8.50;99.90;;;;;;4999488;28;20084;-74
2023/04/29 04:08:07;;;;;;;56.92;49.08;;;8.50;99.90;;;;;;5001389;28;20061;-74
2023/04/29 04:10:33;;;;;;;54.97;49.03;;;8.50;99.90;;;;;;5017251;28;20034;-74
2023/04/29 04:12:58;;;;;;;56.45;49.20;;;8.50;99.90;;;;;;4992817;28;20044;-74
2023/04/29 04:15:25;;;;;;;57.65;49.95;;;8.50;99.90;;;;;;5001198;28;20068;-74
2023/04/29 04:17:50;;;;;;;59.03;49.53;;;8.50;99.90;;;;;;4998760;28;20041;-74
2023/04/29 04:20:16;;;;;;;58.17;49.75;;;8.40;99.90;;;;;;5013211;28;20045;-74
2023/04/29 04:22:42;;;;;;;58.40;51.08;;;8.40;99.90;;;;;;5004869;28;20087;-75
2023/04/29 04:25:08;;;;;;;57.42;49.85;;;8.40;99.90;;;;;;5001059;28;20076;-75
2023/04/29 04:27:33;;;;;;;55.72;48.28;;;8.40;99.90;;;;;;5000998;28;20071;-75
2023/04/29 04:29:59;;;;;;;58.35;48.28;;;8.40;99.90;;;;;;5016728;28;20041;-75
2023/04/29 04:32:25;;;;;;;58.85;49.72;;;8.40;99.90;;;;;;5015568;28;20501;-75
2023/04/29 04:34:51;;;;;;;51.72;46.08;;;8.40;99.90;;;;;;4996171;28;20531;-75
2023/04/29 04:37:17;;;;;;;55.67;47.53;;;8.40;99.90;;;;;;5017163;28;20068;-75
2023/04/29 04:39:45;;;;;;;54.78;47.25;;;8.40;99.90;;;;;;4998367;28;20037;-75
2023/04/29 04:42:13;;;;;;;61.20;50.25;;;8.40;99.90;;;;;;5030066;28;20049;-75
2023/04/29 04:44:38;;;;;;;62.80;50.08;;;8.40;99.90;;;;;;5000316;28;20082;-75
2023/04/29 04:47:05;;;;;;;57.55;47.50;;;8.40;99.90;;;;;;4999851;28;20038;-75
2023/04/29 04:49:33;;;;;;;54.83;46.25;;;8.40;99.90;;;;;;5016830;28;20040;-75
2023/04/29 04:51:58;;;;;;;52.28;45.58;;;8.40;99.90;;;;;;5008124;28;20395;-75
2023/04/29 04:54:24;;;;;;;54.08;45.65;;;8.50;99.90;;;;;;5015851;28;20049;-76
2023/04/29 04:56:50;;;;;;;52.33;45.13;;;8.50;99.90;;;;;;5000461;28;20188;-75
2023/04/29 04:59:16;;;;;;;52.92;45.53;;;8.50;99.90;;;;;;4999348;28;20041;-75
2023/04/29 05:01:42;;;;;;;53.15;44.90;;;8.50;99.90;;;;;;4998873;28;20409;-75
2023/04/29 05:04:07;;;;;;;48.97;41.67;;;8.50;99.90;;;;;;4997322;28;20034;-75
2023/04/29 05:06:35;;;;;;;47.95;41.22;;;8.60;99.90;;;;;;5033775;28;20073;-75
2023/04/29 05:09:02;;;;;;;46.28;41.20;;;8.60;99.90;;;;;;4995779;28;20042;-75
2023/04/29 05:11:27;;;;;;;51.13;42.58;;;8.60;99.90;;;;;;5015530;28;20516;-75
2023/04/29 05:13:53;;;;;;;47.05;40.25;;;8.60;99.90;;;;;;5016002;28;20041;-75
2023/04/29 05:16:18;;;;;;;52.28;43.40;;;8.60;99.90;;;;;;5016224;28;20051;-75
2023/04/29 05:18:45;;;;;;;49.47;41.78;;;8.60;99.90;;;;;;5016136;28;20033;-75
2023/04/29 05:21:11;;;;;;;52.20;42.00;;;8.60;99.90;;;;;;5015767;28;20056;-75
2023/04/29 05:23:37;;;;;;;44.53;38.50;;;8.60;99.90;;;;;;4999892;28;20083;-75
2023/04/29 05:26:03;;;;;;;50.20;42.70;;;8.60;99.90;;;;;;5000124;28;20041;-76
2023/04/29 05:28:32;;;;;;;46.90;38.67;;;8.70;99.90;;;;;;5034239;28;20492;-75
2023/04/29 05:31:00;;;;;;;46.53;38.20;;;8.70;99.90;;;;;;4998865;28;20045;-75
2023/04/29 05:33:25;;;;;;;41.10;35.70;;;8.70;99.90;;;;;;5015996;28;20494;-75
2023/04/29 05:35:51;;;;;;;39.25;34.50;;;8.80;99.90;;;;;;5015995;28;20076;-75
2023/04/29 05:38:16;;;;;;;37.65;33.05;;;8.80;99.90;;;;;;5034228;28;20033;-75
2023/04/29 05:40:45;;;;;;;36.55;32.70;;;8.80;99.90;;;;;;5034128;28;20370;-75
2023/04/29 05:43:14;;;;;;;35.15;31.42;;;8.90;99.90;;;;;;5014335;28;20520;-75
2023/04/29 05:45:39;;;;;;;37.17;32.88;;;8.90;99.90;;;;;;5015618;28;20044;-76
2023/04/29 05:48:05;;;;;;;37.90;31.83;;;8.90;99.90;;;;;;5015888;28;20045;-75
2023/04/29 05:50:31;;;;;;;37.33;31.83;;;8.90;99.90;;;;;;4999392;28;20045;-75
2023/04/29 05:52:56;;;;;;;36.40;30.92;;;8.90;99.90;;;;;;4999339;28;20050;-75
2023/04/29 05:55:25;;;;;;;33.42;29.33;;;9.00;99.90;;;;;;4998689;28;20045;-75
2023/04/29 05:57:50;;;;;;;34.05;30.40;;;9.00;99.90;;;;;;5014665;28;20420;-75
2023/04/29 06:00:16;;;;;;;31.67;28.08;;;9.00;99.90;;;;;;4997853;28;20478;-75
2023/04/29 06:02:42;;;;;;;31.70;28.33;;;9.10;99.90;;;;;;5011520;28;20176;-75
2023/04/29 06:05:08;;;;;;;29.98;26.80;;;9.10;99.90;;;;;;4999284;28;20056;-75
2023/04/29 06:07:33;;;;;;;28.02;24.95;;;9.20;99.90;;;;;;4998619;28;20037;-75
2023/04/29 06:09:59;;;;;;;28.85;25.85;;;9.20;99.90;;;;;;5015437;28;20405;-75
2023/04/29 06:12:24;;;;;;;28.08;25.08;;;9.20;99.90;;;;;;5002834;28;20405;-75
2023/04/29 06:14:51;;;;;;;28.27;24.95;;;9.30;99.90;;;;;;5010143;28;20057;-76
2023/04/29 06:17:16;;;;;;;25.95;23.30;;;9.30;99.90;;;;;;4998894;28;20100;-75
2023/04/29 06:19:42;;;;;;;27.50;23.50;;;9.40;99.90;;;;;;5015251;28;20128;-75
2023/04/29 06:22:07;;;;;;;23.92;21.35;;;9.40;99.90;;;;;;5013677;28;20289;-76
2023/04/29 06:24:33;;;;;;;26.05;22.70;;;9.40;99.90;;;;;;4988457;28;20095;-76
2023/04/29 06:26:59;;;;;;;23.75;21.33;;;9.50;99.90;;;;;;4994551;28;20034;-75
2023/04/29 06:29:24;;;;;;;23.05;20.25;;;9.50;99.90;;;;;;5013859;28;20050;-76
2023/04/29 06:31:50;;;;;;;21.17;19.00;;;9.50;99.90;;;;;;4999017;28;20050;-75
2023/04/29 06:34:16;;;;;;;20.65;18.63;;;9.60;99.90;;;;;;5011103;28;20037;-74
2023/04/29 06:36:41;;;;;;;22.92;19.60;;;9.60;99.90;;;;;;4991495;28;20113;-74
2023/04/29 06:39:07;;;;;;;21.15;18.52;;;9.60;99.90;;;;;;5007268;28;20045;-73
2023/04/29 06:41:36;;;;;;;22.55;20.15;;;9.80;99.90;;;;;;5012755;28;20041;-74
2023/04/29 06:44:01;;;;;;;22.30;19.95;;;9.80;99.90;;;;;;4982828;28;20443;-74
2023/04/29 06:46:27;;;;;;;21.45;18.63;;;9.90;99.90;;;;;;5021424;28;20037;-73
2023/04/29 06:48:53;;;;;;;21.02;18.88;;;10.10;99.90;;;;;;5008609;28;20116;-73
2023/04/29 06:51:18;;;;;;;20.55;18.35;;;10.20;99.90;;;;;;5014700;28;20124;-73
2023/04/29 06:53:45;;;;;;;19.33;17.40;;;10.20;99.90;;;;;;4995169;28;20044;-73
2023/04/29 06:56:11;;;;;;;19.70;17.58;;;10.30;99.90;;;;;;5014283;28;20072;-73
2023/04/29 06:58:37;;;;;;;18.45;16.55;;;10.30;99.90;;;;;;4998302;28;20485;-73
2023/04/29 07:01:03;;;;;;;21.85;18.05;;;10.40;99.90;;;;;;5014597;28;20505;-73
2023/04/29 07:03:28;;;;;;;20.23;17.95;;;10.40;99.90;;;;;;5010905;28;20036;-73
2023/04/29 07:05:54;;;;;;;20.33;17.45;;;10.50;99.90;;;;;;5012181;28;20448;-72
2023/04/29 07:08:19;;;;;;;20.30;18.05;;;10.60;99.90;;;;;;5013247;28;20049;-73
2023/04/29 07:10:56;;;;;;;18.90;15.98;;;10.70;99.90;;;;;;5029329;28;20072;-75
2023/04/29 07:13:21;;;;;;;18.00;16.13;;;10.80;99.90;;;;;;4996658;28;20041;-74
2023/04/29 07:15:47;;;;;;;19.20;16.52;;;10.80;99.90;;;;;;5014174;28;20330;-73
2023/04/29 07:18:13;;;;;;;18.73;15.90;;;10.80;99.90;;;;;;5011661;28;20520;-75
2023/04/29 07:20:38;;;;;;;17.17;15.25;;;10.90;99.90;;;;;;5029217;28;20033;-73
2023/04/29 07:23:04;;;;;;;18.45;16.55;;;10.90;99.90;;;;;;5013219;28;20047;-74
2023/04/29 07:25:29;;;;;;;16.92;15.13;;;10.90;99.90;;;;;;5003922;28;20033;-73
2023/04/29 07:27:56;;;;;;;17.35;15.52;;;11.00;99.90;;;;;;5007556;28;20034;-73
2023/04/29 07:30:22;;;;;;;19.10;15.30;;;11.00;99.90;;;;;;5014367;28;20448;-73
2023/04/29 07:32:47;;;;;;;17.17;14.98;;;11.00;99.90;;;;;;5030958;28;20128;-73
2023/04/29 07:35:13;;;;;;;17.10;15.40;;;11.00;99.90;;;;;;5013296;28;20120;-73
2023/04/29 07:37:40;;;;;;;18.13;15.35;;;11.00;99.90;;;;;;5021310;28;20129;-74
2023/04/29 07:40:06;;;;;;;15.30;13.70;;;11.10;99.90;;;;;;5011944;28;20052;-74
2023/04/29 07:42:32;;;;;;;16.35;14.65;;;11.10;99.90;;;;;;5013815;28;20390;-74
2023/04/29 07:44:57;;;;;;;16.08;14.48;;;11.10;99.90;;;;;;4997116;28;20053;-74
2023/04/29 07:47:23;;;;;;;17.25;15.55;;;11.10;99.90;;;;;;4997734;28;20052;-73
2023/04/29 07:49:51;;;;;;;16.80;15.00;;;11.10;99.90;;;;;;4996686;28;20515;-74
2023/04/29 07:52:17;;;;;;;15.05;13.45;;;11.20;99.90;;;;;;5031371;28;20490;-74
2023/04/29 07:54:43;;;;;;;15.70;14.00;;;11.20;99.90;;;;;;5013800;28;20049;-75
2023/04/29 07:57:10;;;;;;;16.15;14.55;;;11.30;99.90;;;;;;4997553;28;20043;-74
2023/04/29 07:59:36;;;;;;;14.70;13.20;;;11.30;99.90;;;;;;5013828;28;20416;-74
2023/04/29 08:02:01;;;;;;;16.25;14.30;;;11.40;99.90;;;;;;5012722;28;20120;-74
2023/04/29 08:04:27;;;;;;;14.75;13.25;;;11.40;99.90;;;;;;5013365;28;20034;-74
2023/04/29 08:06:52;;;;;;;14.52;13.13;;;11.40;99.90;;;;;;5031489;28;20042;-74
2023/04/29 08:09:18;;;;;;;15.20;13.68;;;11.40;99.90;;;;;;5031631;28;20516;-74
2023/04/29 08:11:44;;;;;;;14.82;13.32;;;11.50;99.90;;;;;;4995910;28;20033;-74
2023/04/29 08:14:10;;;;;;;15.70;14.15;;;11.60;99.90;;;;;;5013328;28;20541;-74
2023/04/29 08:16:36;;;;;;;15.30;13.75;;;11.70;99.90;;;;;;4997108;28;20044;-74
2023/04/29 08:19:01;;;;;;;15.70;13.77;;;11.90;99.90;;;;;;5013647;28;20390;-75
2023/04/29 08:21:27;;;;;;;18.75;12.25;;;12.30;99.90;;;;;;4993192;28;20041;-73
2023/04/29 08:23:54;;;;;;;16.08;13.52;;;12.90;99.90;;;;;;5010513;28;20513;-74
2023/04/29 08:26:19;;;;;;;14.85;11.98;;;13.60;99.90;;;;;;5008169;28;20129;-74
2023/04/29 08:28:45;;;;;;;12.38;10.82;;;14.30;99.90;;;;;;4996158;28;20502;-73
2023/04/29 08:31:20;;;;;;;13.38;11.93;;;15.00;99.90;;;;;;5012657;28;20037;-74
2023/04/29 08:33:46;;;;;;;12.02;10.85;;;15.60;99.90;;;;;;5012913;28;20512;-76
2023/04/29 08:36:12;;;;;;;12.40;11.20;;;16.00;99.90;;;;;;4998917;28;20494;-73
2023/04/29 08:38:40;;;;;;;15.57;11.77;;;16.30;99.90;;;;;;5016122;28;20492;-75
2023/04/29 08:41:10;;;;;;;11.48;10.20;;;16.70;99.90;;;;;;5017213;28;20072;-74
2023/04/29 08:43:36;;;;;;;12.15;10.82;;;17.00;99.90;;;;;;5016268;28;20045;-75
2023/04/29 08:46:03;;;;;;;12.50;10.10;;;17.00;99.90;;;;;;5034539;28;20103;-74
2023/04/29 08:48:29;;;;;;;11.52;10.32;;;17.00;99.90;;;;;;5015785;28;20041;-74
2023/04/29 08:50:57;;;;;;;11.27;9.65;;;17.00;99.90;;;;;;5009190;28;20509;-75
2023/04/29 08:53:25;;;;;;;10.27;9.23;;;17.30;99.90;;;;;;5026468;28;20171;-74
2023/04/29 08:55:53;;;;;;;10.57;9.20;;;17.50;95.60;;;;;;5013080;28;20043;-74
2023/04/29 08:58:19;;;;;;;11.40;10.20;;;17.50;99.40;;;;;;5016722;28;20037;-74
2023/04/29 09:00:45;;;;;;;12.70;9.15;;;17.60;99.90;;;;;;5000694;28;20436;-75
2023/04/29 09:03:23;;;;;;;10.88;9.50;;;17.80;97.10;;;;;;5018822;28;20049;-74
2023/04/29 09:05:55;;;;;;;10.20;8.85;;;18.10;91.50;;;;;;5016498;28;20044;-74
2023/04/29 09:08:23;;;;;;;10.80;9.80;;;18.20;89.80;;;;;;5014243;28;20120;-75
2023/04/29 09:10:50;;;;;;;11.02;9.93;;;18.20;99.40;;;;;;4998487;28;20048;-75
2023/04/29 09:13:25;;;;;;;11.98;9.60;;;18.50;99.90;;;;;;4999324;28;20041;-75
2023/04/29 09:15:54;;;;;;;11.02;9.68;;;18.40;99.90;;;;;;5017114;28;20044;-74
2023/04/29 09:18:42;;;;;;;12.07;9.85;;;17.70;99.50;;;;;;5013660;28;20120;-75
2023/04/29 09:21:19;;;;;;;12.02;9.95;;;16.80;99.90;;;;;;5033270;28;20033;-75
2023/04/29 09:23:46;;;;;;;11.43;9.77;;;16.20;99.90;;;;;;4998678;28;20033;-74
2023/04/29 09:26:12;;;;;;;10.45;8.75;;;16.20;99.90;;;;;;5033945;28;20137;-74
2023/04/29 09:28:40;;;;;;;9.45;8.43;;;16.90;98.40;;;;;;5016244;28;20064;-74
2023/04/29 09:31:07;;;;;;;10.63;9.07;;;17.20;98.90;;;;;;5014901;28;20375;-74
2023/04/29 09:33:52;;;;;;;9.95;8.93;;;17.60;99.90;;;;;;5015760;28;20088;-75
2023/04/29 09:36:49;;;;;;;11.00;9.13;;;18.00;84.30;;;;;;5015159;28;20041;-74
2023/04/29 09:39:15;;;;;;;10.55;9.52;;;18.10;93.70;;;;;;5014279;28;20053;-75
2023/04/29 09:41:53;;;;;;;10.43;9.32;;;18.40;99.90;;;;;;5031967;28;20048;-75
2023/04/29 09:44:26;;;;;;;10.23;8.55;;;18.60;99.90;;;;;;5014515;28;20048;-74
2023/04/29 09:46:56;;;;;;;;;;;18.80;97.30;;;;;;5014458;28;20766;-75
2023/04/29 09:49:26;;;;;;;7.90;7.10;;;19.00;99.10;;;;;;4991523;28;19917;-75
2023/04/29 09:51:57;;;;;;;11.73;8.65;;;19.30;89.30;;;;;;4995524;28;20041;-75
2023/04/29 09:54:24;;;;;;;10.60;8.00;;;19.50;83.50;;;;;;5033117;28;20045;-75
2023/04/29 09:56:52;;;;;;;10.50;8.30;;;19.50;79.70;;;;;;5012299;28;20047;-77
2023/04/29 09:59:18;;;;;;;8.52;7.50;;;19.20;84.10;;;;;;5015440;28;20037;-75
2023/04/29 10:01:50;;;;;;;9.80;7.90;;;18.90;80.00;;;;;;5013115;28;20117;-74
2023/04/29 10:04:17;;;;;;;9.07;8.18;;;18.40;80.80;;;;;;5015291;28;20042;-77
2023/04/29 10:06:46;;;;;;;10.20;7.97;;;18.10;84.10;;;;;;5009680;28;20038;-76
2023/04/29 10:09:15;;;;;;;7.57;6.88;;;18.40;81.20;;;;;;5012594;28;20490;-76
2023/04/29 10:11:41;;;;;;;9.30;7.65;;;18.70;75.40;;;;;;5013943;28;20133;-75
2023/04/29 10:14:12;;;;;;;9.23;8.00;;;18.80;83.30;;;;;;5015312;28;20047;-75
2023/04/29 10:16:49;;;;;;;8.68;7.90;;;18.70;83.00;;;;;;5015701;28;20029;-76
2023/04/29 10:19:50;;;;;;;8.25;7.30;;;18.60;84.40;;;;;;5013618;28;20390;-75
2023/04/29 10:22:23;;;;;;;8.68;7.40;;;18.90;80.70;;;;;;4996902;28;20049;-74
2023/04/29 10:24:50;;;;;;;12.50;7.40;;;19.30;84.00;;;;;;5032102;28;20069;-75
2023/04/29 10:27:17;;;;;;;10.82;8.00;;;19.80;71.60;;;;;;5014954;28;20049;-74
2023/04/29 10:29:44;;;;;;;9.80;8.63;;;20.00;73.30;;;;;;5030682;28;20041;-75
2023/04/29 10:32:11;;;;;;;9.15;8.35;;;19.90;75.80;;;;;;5013452;28;20053;-75
2023/04/29 10:34:39;;;;;;;8.98;7.75;;;20.10;76.80;;;;;;5006655;28;20038;-76
2023/04/29 10:37:10;;;;;;;10.05;8.77;;;20.20;77.00;;;;;;5012185;28;20136;-74
2023/04/29 10:39:49;;;;;;;10.55;7.82;;;20.00;71.10;;;;;;5032088;28;20068;-76
2023/04/29 10:42:49;;;;;;;9.05;7.85;;;19.50;75.70;;;;;;5007987;28;20502;-75
2023/04/29 10:45:31;;;;;;;7.78;7.03;;;19.70;72.70;;;;;;4985606;28;20057;-75
2023/04/29 10:48:07;;;;;;;7.63;6.53;;;19.90;71.40;;;;;;5011644;28;20497;-74
2023/04/29 10:50:45;;;;;;;9.02;6.85;;;20.30;68.10;;;;;;5010281;28;20126;-75
2023/04/29 10:53:13;;;;;;;8.40;6.85;;;20.30;64.80;;;;;;5024130;28;20044;-74
2023/04/29 10:55:39;;;;;;;9.40;7.00;;;20.30;65.70;;;;;;5010106;28;20112;-75
2023/04/29 10:58:05;;;;;;;8.38;6.38;;;20.20;65.30;;;;;;5010841;28;20052;-74
2023/04/29 11:00:32;;;;;;;8.80;6.57;;;20.30;65.10;;;;;;5014784;28;20087;-75
2023/04/29 11:03:05;;;;;;;8.05;7.00;;;20.40;64.90;;;;;;5032019;28;20053;-75
2023/04/29 11:05:35;;;;;;;6.78;5.90;;;20.40;68.40;;;;;;5012711;28;20049;-73
2023/04/29 11:08:25;;;;;;;7.78;6.20;;;20.70;63.50;;;;;;5006230;28;20053;-76
2023/04/29 11:11:00;;;;;;;7.68;6.60;;;20.80;61.20;;;;;;5025185;28;20072;-75
2023/04/29 11:13:29;;;;;;;8.68;6.28;;;20.60;64.20;;;;;;5013985;28;20053;-76
2023/04/29 11:16:05;;;;;;;8.05;6.57;;;20.70;64.20;;;;;;5014204;28;20046;-75
2023/04/29 11:18:31;;;;;;;8.27;6.32;;;21.10;64.60;;;;;;4997901;28;20041;-76
2023/04/29 11:21:05;;;;;;;8.35;6.38;;;21.40;65.60;;;;;;5013320;28;20034;-76
2023/04/29 11:23:40;;;;;;;7.13;6.00;;;21.50;55.70;;;;;;4989987;28;20498;-76
2023/04/29 11:26:06;;;;;;;6.95;5.75;;;20.80;59.00;;;;;;5014387;28;20053;-76
2023/04/29 11:28:32;;;;;;;8.75;6.50;;;20.70;62.50;;;;;;4998322;28;20509;-76
2023/04/29 11:30:58;;;;;;;7.70;6.15;;;20.80;62.30;;;;;;5014105;28;20056;-76
2023/04/29 11:33:26;;;;;;;8.73;6.85;;;21.10;59.30;;;;;;5031465;28;20042;-76
2023/04/29 11:35:55;;;;;;;7.93;6.13;;;21.10;57.60;;;;;;5037938;23;20045;-77
2023/04/29 11:38:28;;;;;;;8.45;5.93;;;21.00;62.70;;;;;;5033762;28;20049;-75
2023/04/29 11:40:55;;;;;;;7.85;6.05;;;21.30;59.60;;;;;;5033766;28;20514;-74
2023/04/29 11:43:24;;;;;;;7.97;6.75;;;21.30;59.40;;;;;;5033475;28;20041;-75
2023/04/29 11:45:51;;;;;;;7.22;6.05;;;21.30;62.60;;;;;;5033117;28;20378;-75
2023/04/29 11:48:18;;;;;;;9.27;6.50;;;21.40;65.60;;;;;;5033567;28;20049;-75
2023/04/29 11:50:48;;;;;;;7.25;5.93;;;21.90;60.10;;;;;;5033757;28;20041;-75
2023/04/29 11:53:14;;;;;;;7.38;5.72;;;21.90;60.70;;;;;;5017045;28;20048;-75
2023/04/29 11:55:44;;;;;;;8.00;5.88;;;22.00;58.90;;;;;;5017045;28;20044;-75
2023/04/29 11:58:10;;;;;;;6.70;5.93;;;21.90;58.20;;;;;;5016122;28;20125;-74
2023/04/29 12:00:36;;;;;;;6.68;5.13;;;21.90;62.60;;;;;;5033408;28;20116;-74
2023/04/29 12:03:16;;;;;;;7.90;4.80;;;22.10;60.70;;;;;;5033351;28;20496;-75
2023/04/29 12:05:55;;;;;;;6.63;5.68;;;22.10;55.00;;;;;;5033516;28;20044;-75
2023/04/29 12:08:22;;;;;;;6.93;5.97;;;21.60;57.50;;;;;;5032752;28;20426;-75
2023/04/29 12:10:48;;;;;;;6.68;5.90;;;21.40;58.50;;;;;;5032203;28;20488;-74
2023/04/29 12:13:17;;;;;;;7.60;6.38;;;21.30;55.90;;;;;;5036994;28;20452;-74
2023/04/29 12:15:45;;;;;;;7.68;6.32;;;21.00;56.30;;;;;;5037230;28;20045;-74
2023/04/29 12:18:11;;;;;;;9.38;6.80;;;20.90;59.00;;;;;;5037364;28;20041;-74
2023/04/29 12:20:38;;;;;;;8.40;6.10;;;20.90;58.80;;;;;;5037501;28;20102;-74
2023/04/29 12:23:13;;;;;;;7.13;5.90;;;20.20;60.50;;;;;;5035912;28;20661;-74
2023/04/29 12:25:40;;;;;;;9.25;6.95;;;19.40;61.20;;;;;;5033159;28;20102;-74
2023/04/29 12:28:11;;;;;;;8.13;6.35;;;18.80;64.70;;;;;;5037163;28;20048;-74
2023/04/29 12:30:37;;;;;;;9.25;6.93;;;19.20;68.30;;;;;;5036067;28;20492;-74
2023/04/29 12:33:03;;;;;;;8.02;6.25;;;19.90;68.30;;;;;;5036690;28;20036;-74
2023/04/29 12:35:28;;;;;;;6.32;5.63;;;20.40;64.60;;;;;;5036872;28;20523;-74
2023/04/29 12:37:57;;;;;;;7.47;6.35;;;20.90;60.80;;;;;;5035704;28;20374;-74
2023/04/29 12:40:23;;;;;;;6.93;5.35;;;21.30;63.90;;;;;;5036721;28;20048;-74
2023/04/29 12:42:49;;;;;;;7.03;5.55;;;21.70;60.60;;;;;;5036635;28;20072;-74